createdAt,value
2022-08-17T00:00:34.472Z,22.34
2022-08-17T00:03:19.760Z,22.25
2022-08-17T00:06:01.546Z,22.22
2022-08-17T00:08:32.557Z,22.21
2022-08-17T00:11:00.829Z,22.20
2022-08-17T00:13:32.407Z,22.17
2022-08-17T00:16:03.263Z,22.12
2022-08-17T00:19:02.139Z,22.08
2022-08-17T00:21:23.808Z,22.02
2022-08-17T00:23:53.853Z,21.99
2022-08-17T00:26:34.722Z,21.99
2022-08-17T00:29:09.286Z,22.00
2022-08-17T00:31:37.802Z,22.02
2022-08-17T00:34:06.574Z,22.04
2022-08-17T00:36:35.184Z,22.08
2022-08-17T00:39:03.010Z,22.11
2022-08-17T00:41:31.648Z,22.11
2022-08-17T00:44:06.285Z,22.10
2022-08-17T00:46:39.365Z,22.12
2022-08-17T00:49:08.368Z,22.15
2022-08-17T00:51:48.936Z,22.21
2022-08-17T00:54:25.654Z,22.22
2022-08-17T00:57:30.170Z,22.21
2022-08-17T01:00:17.073Z,22.17
2022-08-17T01:02:45.920Z,22.15
2022-08-17T01:05:20.689Z,22.13
2022-08-17T01:07:50.953Z,22.13
2022-08-17T01:10:58.730Z,22.12
2022-08-17T01:13:11.355Z,22.04
2022-08-17T01:15:42.152Z,22.02
2022-08-17T01:18:14.452Z,22.02
2022-08-17T01:20:48.113Z,22.05
2022-08-17T01:23:20.459Z,22.04
2022-08-17T01:25:53.411Z,22.06
2022-08-17T01:28:33.231Z,22.03
2022-08-17T01:31:10.387Z,22.01
2022-08-17T01:33:38.568Z,21.99
2022-08-17T01:36:07.595Z,21.94
2022-08-17T01:38:37.465Z,21.90
2022-08-17T01:41:14.396Z,21.86
2022-08-17T01:43:45.853Z,21.81
2022-08-17T01:46:22.170Z,21.74
2022-08-17T01:48:51.332Z,21.66
2022-08-17T01:51:19.923Z,21.60
2022-08-17T01:53:55.459Z,21.55
2022-08-17T01:56:25.310Z,21.49
2022-08-17T01:58:52.870Z,21.49
2022-08-17T02:01:23.634Z,21.49
2022-08-17T02:03:59.172Z,21.45
2022-08-17T02:06:53.715Z,21.40
2022-08-17T02:09:25.489Z,21.35
2022-08-17T02:11:54.835Z,21.33
2022-08-17T02:14:25.045Z,21.33
2022-08-17T02:16:53.498Z,21.33
2022-08-17T02:19:22.026Z,21.31
2022-08-17T02:21:53.089Z,21.24
2022-08-17T02:24:58.894Z,21.18
2022-08-17T02:27:15.553Z,21.16
2022-08-17T02:29:43.066Z,21.15
2022-08-17T02:32:20.666Z,21.15
2022-08-17T02:34:53.360Z,21.19
2022-08-17T02:37:21.062Z,21.23
2022-08-17T02:39:48.611Z,21.23
2022-08-17T02:42:16.203Z,21.23
2022-08-17T02:44:43.728Z,21.22
2022-08-17T02:47:12.599Z,21.22
2022-08-17T02:49:46.353Z,21.23
2022-08-17T02:52:43.217Z,21.31
2022-08-17T02:55:14.317Z,21.42
2022-08-17T02:57:41.866Z,21.60
2022-08-17T03:00:29.174Z,21.85
2022-08-17T03:02:57.551Z,22.17
2022-08-17T03:05:27.530Z,22.52
2022-08-17T03:07:55.947Z,22.78
2022-08-17T03:10:25.688Z,22.98
2022-08-17T03:12:53.995Z,23.44
2022-08-17T03:15:29.259Z,24.00
2022-08-17T03:17:57.927Z,24.66
2022-08-17T03:20:26.781Z,25.30
2022-08-17T03:23:01.776Z,25.79
2022-08-17T03:25:35.819Z,26.21
2022-08-17T03:28:05.581Z,26.69
2022-08-17T03:30:34.389Z,27.15
2022-08-17T03:33:05.967Z,27.61
2022-08-17T03:35:35.009Z,28.15
2022-08-17T03:38:04.229Z,28.47
2022-08-17T03:40:55.435Z,28.15
2022-08-17T03:43:21.131Z,27.57
2022-08-17T03:46:11.017Z,27.90
2022-08-17T03:49:13.573Z,28.73
2022-08-17T03:52:03.839Z,29.44
2022-08-17T03:54:49.793Z,30.01
2022-08-17T03:57:17.318Z,30.45
2022-08-17T03:59:45.311Z,30.96
2022-08-17T04:02:18.312Z,31.39
2022-08-17T04:04:46.784Z,31.68
2022-08-17T04:07:14.384Z,32.00
2022-08-17T04:09:43.039Z,32.42
2022-08-17T04:12:11.727Z,32.99
2022-08-17T04:14:52.568Z,33.40
2022-08-17T04:17:27.574Z,33.18
2022-08-17T04:19:56.018Z,33.01
2022-08-17T04:22:32.765Z,33.14
2022-08-17T04:25:24.395Z,33.26
2022-08-17T04:27:52.399Z,33.31
2022-08-17T04:30:20.047Z,33.36
2022-08-17T04:33:00.818Z,33.14
2022-08-17T04:35:38.721Z,33.12
2022-08-17T04:38:07.809Z,33.65
2022-08-17T04:41:07.340Z,33.79
2022-08-17T04:43:35.860Z,33.88
2022-08-17T04:46:19.339Z,34.26
2022-08-17T04:48:49.714Z,34.25
2022-08-17T04:51:20.733Z,34.32
2022-08-17T04:53:54.375Z,34.29
2022-08-17T04:56:25.208Z,34.24
2022-08-17T04:58:55.224Z,34.06
2022-08-17T05:01:25.018Z,34.37
2022-08-17T05:03:54.407Z,34.37
2022-08-17T05:06:25.631Z,34.22
2022-08-17T05:08:53.651Z,34.21
2022-08-17T05:11:25.610Z,34.50
2022-08-17T05:13:53.813Z,34.75
2022-08-17T05:16:22.810Z,34.86
2022-08-17T05:18:50.601Z,34.87
2022-08-17T05:21:18.696Z,34.64
2022-08-17T05:23:50.320Z,34.61
2022-08-17T05:26:26.963Z,34.86
2022-08-17T05:28:59.629Z,35.06
2022-08-17T05:31:29.616Z,35.07
2022-08-17T05:33:57.467Z,35.37
2022-08-17T05:36:41.902Z,35.88
2022-08-17T05:39:15.930Z,35.42
2022-08-17T05:41:48.393Z,35.49
2022-08-17T05:44:16.620Z,35.37
2022-08-17T05:46:50.718Z,35.08
2022-08-17T05:49:28.063Z,35.09
2022-08-17T05:52:18.834Z,35.07
2022-08-17T05:55:06.430Z,34.89
2022-08-17T05:58:00.229Z,34.95
2022-08-17T06:00:51.007Z,35.38
2022-08-17T06:03:40.061Z,35.54
2022-08-17T06:06:31.402Z,35.88
2022-08-17T06:09:33.417Z,35.94
2022-08-17T06:12:24.658Z,35.82
2022-08-17T06:15:01.446Z,36.32
2022-08-17T06:17:29.138Z,36.85
2022-08-17T06:20:04.347Z,36.97
2022-08-17T06:22:36.724Z,37.07
2022-08-17T06:25:19.515Z,37.15
2022-08-17T06:27:55.989Z,37.47
2022-08-17T06:30:26.770Z,37.90
2022-08-17T06:32:59.651Z,38.63
2022-08-17T06:35:38.019Z,39.37
2022-08-17T06:38:38.886Z,40.01
2022-08-17T06:41:45.344Z,40.54
2022-08-17T06:44:43.563Z,40.24
2022-08-17T06:47:33.001Z,38.75
2022-08-17T06:50:20.654Z,37.59
2022-08-17T06:53:03.117Z,36.73
2022-08-17T06:55:52.751Z,35.69
2022-08-17T06:58:29.573Z,34.62
2022-08-17T07:01:01.187Z,33.38
2022-08-17T07:03:44.446Z,32.33
2022-08-17T07:06:16.666Z,31.60
2022-08-17T07:09:11.122Z,31.44
2022-08-17T07:11:54.309Z,31.16
2022-08-17T07:14:57.057Z,31.07
2022-08-17T07:17:46.823Z,31.05
2022-08-17T07:20:22.819Z,31.42
2022-08-17T07:23:15.349Z,31.63
2022-08-17T07:25:43.344Z,31.65
2022-08-17T07:28:13.714Z,31.62
2022-08-17T07:30:49.420Z,31.64
2022-08-17T07:33:30.117Z,31.76
2022-08-17T07:35:59.458Z,31.63
2022-08-17T07:38:44.802Z,31.70
2022-08-17T07:41:26.634Z,31.67
2022-08-17T07:51:43.192Z,31.59
2022-08-17T07:57:36.442Z,32.39
2022-08-17T08:00:16.304Z,32.47
2022-08-17T08:03:00.751Z,32.32
2022-08-17T08:05:48.704Z,31.98
2022-08-17T08:08:26.210Z,31.64
2022-08-17T08:14:31.194Z,31.17
2022-08-17T08:17:27.870Z,31.14
2022-08-17T08:20:00.876Z,31.23
2022-08-17T08:23:12.945Z,31.21
2022-08-17T08:26:21.323Z,31.08
2022-08-17T08:32:21.517Z,31.33
2022-08-17T08:35:09.649Z,31.56
2022-08-17T08:37:49.029Z,31.83
2022-08-17T08:40:31.611Z,32.22
2022-08-17T08:43:26.173Z,32.59
2022-08-17T08:46:37.553Z,32.87
2022-08-17T08:50:02.144Z,32.88
2022-08-17T08:52:37.329Z,32.80
2022-08-17T08:55:28.099Z,32.58
2022-08-17T08:58:53.306Z,32.21
2022-08-17T09:02:37.814Z,31.85
2022-08-17T09:05:22.814Z,31.67
2022-08-17T09:08:14.774Z,31.70
2022-08-17T09:11:12.274Z,31.80
2022-08-17T09:16:25.046Z,31.70
2022-08-17T09:18:59.158Z,31.45
2022-08-17T09:22:01.653Z,31.35
2022-08-17T09:54:40.482Z,32.41
2022-08-17T09:57:48.050Z,32.32
2022-08-17T10:01:01.239Z,32.19
2022-08-17T10:03:54.179Z,32.05
2022-08-17T10:07:36.314Z,32.01
2022-08-17T10:09:50.430Z,32.33
2022-08-17T10:13:03.179Z,32.59
2022-08-17T10:15:53.462Z,32.76
2022-08-17T10:18:37.929Z,33.10
2022-08-17T10:28:29.728Z,33.98
2022-08-17T10:31:33.789Z,34.16
2022-08-17T10:34:41.073Z,34.34
2022-08-17T10:37:34.786Z,34.54
2022-08-17T10:40:15.506Z,34.50
2022-08-17T10:43:26.135Z,34.43
2022-08-17T10:48:08.006Z,34.63
2022-08-17T10:50:00.465Z,34.79
2022-08-17T10:52:47.507Z,34.81
2022-08-17T10:55:28.813Z,34.62
2022-08-17T10:58:22.165Z,34.40
2022-08-17T11:03:55.097Z,34.17
2022-08-17T11:06:52.317Z,34.30
2022-08-17T11:09:33.836Z,34.52
2022-08-17T11:12:25.635Z,34.57
2022-08-17T11:15:39.427Z,34.43
2022-08-17T11:18:50.791Z,34.34
2022-08-17T11:21:52.042Z,34.64
2022-08-17T11:24:45.545Z,34.76
2022-08-17T11:27:38.428Z,34.78
2022-08-17T11:30:49.751Z,34.78
2022-08-17T11:33:38.187Z,34.63
2022-08-17T11:37:11.828Z,34.50
2022-08-17T11:40:45.911Z,34.32
2022-08-17T11:43:42.959Z,34.09
2022-08-17T11:47:00.815Z,34.05
2022-08-17T11:49:58.132Z,34.12
2022-08-17T11:53:37.938Z,34.01
2022-08-17T11:56:44.395Z,33.85
2022-08-17T11:59:45.656Z,33.76
2022-08-17T12:02:34.225Z,33.92
2022-08-17T12:05:46.569Z,34.27
2022-08-17T12:08:30.403Z,34.45
2022-08-17T12:12:11.277Z,34.63
2022-08-17T12:15:05.898Z,34.39
2022-08-17T12:17:40.254Z,34.33
2022-08-17T12:20:45.460Z,34.48
2022-08-17T12:23:35.634Z,34.42
2022-08-17T12:26:36.055Z,34.04
2022-08-17T12:29:35.137Z,33.81
2022-08-17T12:35:39.321Z,33.47
2022-08-17T12:38:33.102Z,33.40
2022-08-17T12:41:54.709Z,33.38
2022-08-17T12:45:07.733Z,33.35
2022-08-17T12:47:59.665Z,33.58
2022-08-17T12:50:34.915Z,33.74
2022-08-17T12:54:00.029Z,33.73
2022-08-17T12:56:32.508Z,33.84
2022-08-17T12:59:05.389Z,33.49
2022-08-17T13:01:52.767Z,33.41
2022-08-17T13:05:35.109Z,33.20
2022-08-17T13:11:26.799Z,32.81
2022-08-17T13:24:11.025Z,32.78
2022-08-17T13:27:22.287Z,32.69
2022-08-17T13:30:25.508Z,32.78
2022-08-17T13:33:44.553Z,32.99
2022-08-17T13:40:21.354Z,33.03
2022-08-17T13:43:10.828Z,33.08
2022-08-17T13:46:02.380Z,33.16
2022-08-17T13:49:05.442Z,33.18
2022-08-17T13:51:56.968Z,33.10
2022-08-17T13:55:36.597Z,33.12
2022-08-17T13:59:53.463Z,32.99
2022-08-17T14:03:00.809Z,32.69
2022-08-17T14:05:38.025Z,32.30
2022-08-17T14:08:14.888Z,32.00
2022-08-17T14:20:34.939Z,31.73
2022-08-17T14:23:05.065Z,31.56
2022-08-17T14:25:44.112Z,31.66
2022-08-17T14:28:18.815Z,31.74
2022-08-17T14:31:18.955Z,31.77
2022-08-17T14:34:00.867Z,31.79
2022-08-17T14:36:45.410Z,31.76
2022-08-17T14:39:24.055Z,31.77
2022-08-17T14:45:27.391Z,32.01
2022-08-17T14:48:17.864Z,31.99
2022-08-17T14:50:59.000Z,32.03
2022-08-17T14:53:38.750Z,32.17
2022-08-17T14:56:18.358Z,32.28
2022-08-17T14:58:48.805Z,32.30
2022-08-17T15:01:59.105Z,32.19
2022-08-17T15:05:20.818Z,31.92
2022-08-17T15:08:25.297Z,31.72
2022-08-17T15:13:51.992Z,31.57
2022-08-17T15:16:41.257Z,31.59
2022-08-17T15:19:31.959Z,31.59
2022-08-17T15:25:27.657Z,31.27
2022-08-17T15:28:06.249Z,31.10
2022-08-17T15:30:45.242Z,30.95
2022-08-17T15:33:34.743Z,30.81
2022-08-17T15:36:16.432Z,30.53
2022-08-17T15:38:50.121Z,30.37
2022-08-17T15:41:28.510Z,30.43
2022-08-17T15:45:09.178Z,30.48
2022-08-17T15:47:45.171Z,30.29
2022-08-17T15:50:21.499Z,30.05
2022-08-17T15:53:08.859Z,29.62
2022-08-17T15:55:38.678Z,29.33
2022-08-17T15:58:14.283Z,29.12
2022-08-17T16:03:01.779Z,29.02
2022-08-17T16:04:32.407Z,28.81
2022-08-17T16:07:15.237Z,28.87
2022-08-17T16:10:18.669Z,28.75
2022-08-17T16:13:17.842Z,28.53
2022-08-17T16:16:08.512Z,28.55
2022-08-17T16:18:41.679Z,28.25
2022-08-17T16:21:27.945Z,28.11
2022-08-17T16:24:25.110Z,28.25
2022-08-17T16:27:11.682Z,28.18
2022-08-17T16:29:47.605Z,27.86
2022-08-17T16:32:36.878Z,27.92
2022-08-17T16:35:25.144Z,28.05
2022-08-17T16:39:08.494Z,27.85
2022-08-17T16:41:56.558Z,27.82
2022-08-17T16:45:02.280Z,27.63
2022-08-17T16:47:37.190Z,27.38
2022-08-17T16:50:59.946Z,27.41
2022-08-17T16:54:09.007Z,27.26
2022-08-17T16:57:09.204Z,27.10
2022-08-17T17:00:19.932Z,27.07
2022-08-17T17:03:58.042Z,27.19
2022-08-17T17:07:04.415Z,27.25
2022-08-17T17:10:03.365Z,27.41
2022-08-17T17:13:02.278Z,27.40
2022-08-17T17:20:10.900Z,26.73
2022-08-17T17:23:35.211Z,26.35
2022-08-17T17:26:29.296Z,26.13
2022-08-17T17:29:17.779Z,25.91
2022-08-17T17:47:11.763Z,25.46
2022-08-17T17:49:53.703Z,25.43
2022-08-17T17:52:51.713Z,25.49
2022-08-17T17:56:04.630Z,25.43
2022-08-17T17:58:56.304Z,25.39
2022-08-17T18:02:08.493Z,25.31
2022-08-17T18:05:03.304Z,25.20
2022-08-17T18:08:14.643Z,25.13
2022-08-17T18:11:35.087Z,25.10
2022-08-17T18:14:56.669Z,25.08
2022-08-17T18:18:06.663Z,25.07
2022-08-17T18:20:53.980Z,25.07
2022-08-17T18:23:29.834Z,25.04
2022-08-17T18:26:01.292Z,24.98
2022-08-17T18:29:03.761Z,24.97
2022-08-17T18:32:48.643Z,24.91
2022-08-17T18:38:45.248Z,24.50
2022-08-17T18:41:45.351Z,24.41
2022-08-17T18:44:42.303Z,24.36
2022-08-17T18:47:21.654Z,24.33
2022-08-17T18:50:06.728Z,24.30
2022-08-17T18:53:19.989Z,24.25
2022-08-17T18:56:32.121Z,24.59
2022-08-17T19:02:56.284Z,25.18
2022-08-17T19:05:31.024Z,25.28
2022-08-17T19:08:30.646Z,25.38
2022-08-17T19:11:12.619Z,25.48
2022-08-17T19:14:08.706Z,25.56
2022-08-17T19:17:01.051Z,25.57
2022-08-17T19:20:00.193Z,25.63
2022-08-17T19:23:05.352Z,25.73
2022-08-17T19:26:23.356Z,25.71
2022-08-17T19:29:52.810Z,25.45
2022-08-17T19:32:31.993Z,24.97
2022-08-17T19:35:15.030Z,24.66
2022-08-17T19:38:13.257Z,24.33
2022-08-17T19:41:15.489Z,24.15
2022-08-17T19:44:09.127Z,24.01
2022-08-17T19:50:09.941Z,23.75
2022-08-17T20:03:36.425Z,23.22
2022-08-17T20:06:25.408Z,23.18
2022-08-17T20:10:20.017Z,23.14
2022-08-17T20:16:47.100Z,23.07
2022-08-17T20:20:19.406Z,23.07
2022-08-17T20:23:04.003Z,23.08
2022-08-17T20:26:17.145Z,23.03
2022-08-17T20:29:20.244Z,23.00
2022-08-17T20:32:21.197Z,22.98
2022-08-17T20:35:41.162Z,22.94
2022-08-17T20:38:46.604Z,22.90
2022-08-17T20:41:27.684Z,22.83
2022-08-17T20:44:07.799Z,22.78
2022-08-17T20:46:41.474Z,22.74
2022-08-17T20:49:15.003Z,22.71
2022-08-17T20:52:12.816Z,22.66
2022-08-17T20:54:48.917Z,22.65
2022-08-17T20:57:44.727Z,22.63
2022-08-17T21:01:20.406Z,22.60
2022-08-17T21:03:55.896Z,22.60
2022-08-17T21:06:26.966Z,22.57
2022-08-17T21:08:59.146Z,22.57
2022-08-17T21:11:57.320Z,22.54
2022-08-17T21:14:25.648Z,22.48
2022-08-17T21:17:15.165Z,22.43
2022-08-17T21:20:12.337Z,22.37
2022-08-17T21:23:04.755Z,22.36
2022-08-17T21:26:16.640Z,22.33
2022-08-17T21:29:30.290Z,22.34
2022-08-17T21:32:09.722Z,22.30
2022-08-17T21:35:07.283Z,22.29
2022-08-17T21:37:48.387Z,22.31
2022-08-17T21:40:39.441Z,22.35
2022-08-17T21:43:24.233Z,22.42
2022-08-17T21:46:00.577Z,22.48
2022-08-17T21:48:54.369Z,22.56
2022-08-17T21:51:27.697Z,22.63
2022-08-17T21:56:51.714Z,22.71
2022-08-17T21:59:27.248Z,22.72
2022-08-17T22:02:08.442Z,22.71
2022-08-17T22:04:58.461Z,22.70
2022-08-17T22:07:42.809Z,22.70
2022-08-17T22:13:31.901Z,22.63
2022-08-17T22:16:29.049Z,22.55
2022-08-17T22:22:06.485Z,22.54
2022-08-17T22:24:41.542Z,22.56
2022-08-17T22:27:12.007Z,22.59
2022-08-17T22:30:01.540Z,22.63
2022-08-17T22:32:55.309Z,22.61
2022-08-17T22:35:39.121Z,22.63
2022-08-17T22:38:23.213Z,22.65
2022-08-17T22:41:04.632Z,22.65
2022-08-17T22:43:38.510Z,22.64
2022-08-17T22:46:18.621Z,22.64
2022-08-17T22:51:42.741Z,22.65
2022-08-17T22:54:37.617Z,22.59
2022-08-17T22:57:25.380Z,22.54
2022-08-17T22:59:55.765Z,22.50
2022-08-17T23:02:50.281Z,22.46
2022-08-17T23:05:24.205Z,22.40
2022-08-17T23:07:53.235Z,22.37
2022-08-17T23:13:21.593Z,22.27
2022-08-17T23:15:51.597Z,22.22
2022-08-17T23:18:23.656Z,22.17
2022-08-17T23:20:51.332Z,22.09
2022-08-17T23:23:23.713Z,21.99
2022-08-17T23:25:53.812Z,21.87
2022-08-17T23:28:21.868Z,21.77
2022-08-17T23:30:51.599Z,21.72
2022-08-17T23:33:26.662Z,21.69
2022-08-17T23:35:54.272Z,21.74
2022-08-17T23:38:24.807Z,21.81
2022-08-17T23:40:53.903Z,21.85
2022-08-17T23:43:24.705Z,21.86
2022-08-17T23:46:00.800Z,21.84
2022-08-17T23:48:36.793Z,21.80
2022-08-17T23:51:09.270Z,21.77
2022-08-17T23:53:42.072Z,21.73
2022-08-17T23:56:24.519Z,21.68
2022-08-17T23:58:55.048Z,21.62
